createdAt,value
2023-02-24T00:02:06.193Z,8.10
2023-02-24T00:04:40.310Z,8.00
2023-02-24T00:07:10.934Z,8.00
2023-02-24T00:09:39.254Z,7.90
2023-02-24T00:12:13.414Z,7.90
2023-02-24T00:14:45.025Z,7.80
2023-02-24T00:17:16.572Z,7.80
2023-02-24T00:19:44.237Z,7.80
2023-02-24T00:22:11.532Z,7.70
2023-02-24T00:24:38.766Z,7.70
2023-02-24T00:27:12.127Z,7.70
2023-02-24T00:29:42.251Z,7.70
2023-02-24T00:32:13.180Z,7.80
2023-02-24T00:34:41.388Z,7.70
2023-02-24T00:37:09.091Z,7.70
2023-02-24T00:39:37.408Z,7.70
2023-02-24T00:42:06.653Z,7.60
2023-02-24T00:44:47.306Z,7.70
2023-02-24T00:47:16.920Z,7.70
2023-02-24T00:49:44.612Z,7.70
2023-02-24T00:52:18.423Z,7.60
2023-02-24T00:54:48.177Z,7.60
2023-02-24T00:57:18.450Z,7.60
2023-02-24T00:59:47.827Z,7.60
2023-02-24T01:02:15.632Z,7.50
2023-02-24T01:04:46.173Z,7.50
2023-02-24T01:07:13.577Z,7.50
2023-02-24T01:09:42.010Z,7.60
2023-02-24T01:12:38.270Z,7.50
2023-02-24T01:15:09.197Z,7.50
2023-02-24T01:17:38.027Z,7.40
2023-02-24T01:20:16.678Z,7.40
2023-02-24T01:22:51.656Z,7.30
2023-02-24T01:25:20.633Z,7.30
2023-02-24T01:27:48.420Z,7.30
2023-02-24T01:30:18.404Z,7.30
2023-02-24T01:32:47.571Z,7.30
2023-02-24T01:35:15.286Z,7.20
2023-02-24T01:37:43.272Z,7.20
2023-02-24T01:40:20.948Z,7.20
2023-02-24T01:42:51.761Z,7.20
2023-02-24T01:45:25.071Z,7.20
2023-02-24T01:47:53.466Z,7.20
2023-02-24T01:50:23.639Z,7.20
2023-02-24T01:52:56.982Z,7.10
2023-02-24T01:55:47.513Z,7.00
2023-02-24T01:58:26.062Z,7.00
2023-02-24T02:00:53.225Z,7.00
2023-02-24T02:03:24.290Z,7.10
2023-02-24T02:05:56.387Z,7.10
2023-02-24T02:08:24.851Z,7.20
2023-02-24T02:10:58.922Z,7.20
2023-02-24T02:13:28.868Z,7.30
2023-02-24T02:16:41.936Z,7.30
2023-02-24T02:19:50.878Z,7.30
2023-02-24T02:22:38.902Z,7.30
2023-02-24T02:25:49.392Z,7.20
2023-02-24T02:28:26.393Z,7.20
2023-02-24T02:31:40.903Z,7.20
2023-02-24T02:34:13.010Z,7.20
2023-02-24T02:36:43.120Z,7.30
2023-02-24T02:39:43.317Z,7.30
2023-02-24T02:42:41.110Z,7.20
2023-02-24T02:45:34.215Z,7.20
2023-02-24T02:48:15.359Z,7.20
2023-02-24T02:50:48.498Z,7.20
2023-02-24T02:53:21.180Z,7.20
2023-02-24T02:56:18.185Z,7.20
2023-02-24T02:58:53.346Z,7.20
2023-02-24T03:01:28.859Z,7.30
2023-02-24T03:04:04.765Z,7.20
2023-02-24T03:06:38.282Z,7.20
2023-02-24T03:09:32.711Z,7.10
2023-02-24T03:12:09.551Z,7.20
2023-02-24T03:14:42.988Z,7.30
2023-02-24T03:17:17.141Z,7.20
2023-02-24T03:19:46.403Z,7.20
2023-02-24T03:22:30.045Z,7.20
2023-02-24T03:24:57.677Z,7.20
2023-02-24T03:27:34.911Z,7.20
2023-02-24T03:30:27.924Z,7.20
2023-02-24T03:33:13.317Z,7.10
2023-02-24T03:35:44.424Z,7.10
2023-02-24T03:38:14.213Z,7.20
2023-02-24T03:40:43.550Z,7.10
2023-02-24T03:43:22.241Z,7.20
2023-02-24T03:45:50.070Z,7.00
2023-02-24T03:48:17.645Z,7.00
2023-02-24T03:50:45.584Z,7.10
2023-02-24T03:53:30.546Z,7.10
2023-02-24T03:56:28.121Z,7.10
2023-02-24T03:59:36.376Z,7.10
2023-02-24T04:02:24.391Z,7.00
2023-02-24T04:05:12.631Z,6.90
2023-02-24T04:07:43.272Z,6.80
2023-02-24T04:10:34.770Z,6.70
2023-02-24T04:13:38.132Z,6.70
2023-02-24T04:16:29.251Z,6.60
2023-02-24T04:19:04.089Z,6.50
2023-02-24T04:21:32.518Z,6.50
2023-02-24T04:24:06.460Z,6.50
2023-02-24T04:26:36.638Z,6.40
2023-02-24T04:29:04.246Z,6.50
2023-02-24T04:31:32.482Z,6.50
2023-02-24T04:34:00.300Z,6.50
2023-02-24T04:36:27.750Z,6.40
2023-02-24T04:38:55.769Z,6.40
2023-02-24T04:41:23.518Z,6.40
2023-02-24T04:43:51.734Z,6.40
2023-02-24T04:46:19.953Z,6.40
2023-02-24T04:48:47.218Z,6.30
2023-02-24T04:51:14.397Z,6.40
2023-02-24T04:53:41.559Z,6.40
2023-02-24T04:56:09.291Z,6.30
2023-02-24T04:58:39.623Z,6.40
2023-02-24T05:01:12.810Z,6.30
2023-02-24T05:03:43.075Z,6.30
2023-02-24T05:06:18.263Z,6.40
2023-02-24T05:08:45.727Z,6.30
2023-02-24T05:11:18.989Z,6.30
2023-02-24T05:13:47.156Z,6.30
2023-02-24T05:16:17.872Z,6.30
2023-02-24T05:18:45.090Z,6.30
2023-02-24T05:21:35.788Z,6.30
2023-02-24T05:24:07.073Z,6.30
2023-02-24T05:26:37.133Z,6.30
2023-02-24T05:29:06.913Z,6.30
2023-02-24T05:31:36.546Z,6.30
2023-02-24T05:34:08.221Z,6.20
2023-02-24T05:36:40.662Z,6.20
2023-02-24T05:39:13.178Z,6.20
2023-02-24T05:41:43.337Z,6.20
2023-02-24T05:44:17.064Z,6.10
2023-02-24T05:46:47.104Z,6.10
2023-02-24T05:49:20.835Z,6.00
2023-02-24T05:51:57.005Z,6.00
2023-02-24T05:54:30.756Z,6.10
2023-02-24T05:57:05.952Z,6.00
2023-02-24T05:59:33.753Z,6.00
2023-02-24T06:02:08.483Z,5.90
2023-02-24T06:04:51.293Z,5.90
2023-02-24T06:07:24.836Z,5.90
2023-02-24T06:09:58.054Z,6.00
2023-02-24T06:12:33.962Z,5.90
2023-02-24T06:15:07.615Z,5.90
2023-02-24T06:17:35.189Z,5.90
2023-02-24T06:20:12.175Z,5.90
2023-02-24T06:22:42.492Z,5.80
2023-02-24T06:25:14.229Z,5.80
2023-02-24T06:27:43.168Z,5.90
2023-02-24T06:30:11.392Z,5.90
2023-02-24T06:32:39.375Z,6.00
2023-02-24T06:35:07.494Z,6.00
2023-02-24T06:37:35.876Z,6.10
2023-02-24T06:40:15.895Z,6.10
2023-02-24T06:42:56.653Z,6.10
2023-02-24T06:45:26.448Z,6.10
2023-02-24T06:47:53.900Z,6.20
2023-02-24T06:50:21.812Z,6.20
2023-02-24T06:52:55.062Z,6.20
2023-02-24T06:55:28.445Z,6.30
2023-02-24T06:58:05.743Z,6.40
2023-02-24T07:00:42.714Z,6.50
2023-02-24T07:03:16.013Z,6.40
2023-02-24T07:05:54.564Z,6.40
2023-02-24T07:08:24.523Z,6.50
2023-02-24T07:10:56.791Z,6.60
2023-02-24T07:13:28.131Z,6.60
2023-02-24T07:15:55.763Z,6.70
2023-02-24T07:18:23.263Z,6.80
2023-02-24T07:20:50.389Z,6.80
2023-02-24T07:23:17.734Z,6.70
2023-02-24T07:25:46.430Z,6.80
2023-02-24T07:28:14.647Z,6.90
2023-02-24T07:30:42.789Z,6.90
2023-02-24T07:33:10.375Z,7.00
2023-02-24T07:35:37.456Z,7.00
2023-02-24T07:38:05.752Z,7.10
2023-02-24T07:40:34.367Z,7.30
2023-02-24T07:43:02.300Z,7.30
2023-02-24T07:45:29.826Z,7.30
2023-02-24T07:47:57.510Z,7.30
2023-02-24T07:50:24.712Z,7.40
2023-02-24T07:52:51.872Z,7.40
2023-02-24T07:55:19.405Z,7.40
2023-02-24T07:57:48.525Z,7.50
2023-02-24T08:00:20.240Z,7.50
2023-02-24T08:02:51.726Z,7.60
2023-02-24T08:05:19.287Z,7.70
2023-02-24T08:07:49.968Z,7.90
2023-02-24T08:10:24.620Z,7.90
2023-02-24T08:12:55.290Z,7.90
2023-02-24T08:15:34.115Z,8.00
2023-02-24T08:18:02.069Z,8.10
2023-02-24T08:20:52.432Z,8.20
2023-02-24T08:23:20.192Z,8.10
2023-02-24T08:25:47.253Z,8.20
2023-02-24T08:28:14.356Z,8.30
2023-02-24T08:30:47.696Z,8.40
2023-02-24T08:33:21.206Z,8.40
2023-02-24T08:35:58.036Z,8.50
2023-02-24T08:38:27.722Z,8.50
2023-02-24T08:40:57.287Z,8.60
2023-02-24T08:43:38.394Z,8.60
2023-02-24T08:46:18.270Z,8.50
2023-02-24T08:48:56.077Z,8.40
2023-02-24T08:51:34.716Z,8.40
2023-02-24T08:54:11.663Z,8.30
2023-02-24T08:56:43.720Z,8.50
2023-02-24T08:59:32.554Z,8.40
2023-02-24T09:02:32.366Z,8.30
2023-02-24T09:05:04.758Z,8.20
2023-02-24T09:07:37.821Z,8.20
2023-02-24T09:10:17.978Z,8.10
2023-02-24T09:12:49.901Z,8.10
2023-02-24T09:15:17.530Z,8.10
2023-02-24T09:17:45.811Z,8.10
2023-02-24T09:20:41.083Z,8.10
2023-02-24T09:23:08.939Z,8.10
2023-02-24T09:25:43.617Z,8.20
2023-02-24T09:28:18.509Z,8.20
2023-02-24T09:30:53.499Z,8.30
2023-02-24T09:33:29.861Z,8.50
2023-02-24T09:36:10.308Z,8.70
2023-02-24T09:39:00.874Z,8.80
2023-02-24T09:42:18.123Z,9.00
2023-02-24T09:44:55.882Z,9.10
2023-02-24T09:47:56.206Z,9.50
2023-02-24T09:51:01.445Z,9.70
2023-02-24T09:53:29.523Z,9.70
2023-02-24T09:56:06.850Z,9.90
2023-02-24T09:58:51.116Z,9.90
2023-02-24T10:01:33.851Z,9.90
2023-02-24T10:04:20.578Z,10.10
2023-02-24T10:06:52.209Z,9.90
2023-02-24T10:09:43.116Z,9.80
2023-02-24T10:12:17.720Z,9.70
2023-02-24T10:15:19.083Z,9.60
2023-02-24T10:17:57.020Z,9.60
2023-02-24T10:20:40.268Z,9.50
2023-02-24T10:23:45.342Z,9.40
2023-02-24T10:26:31.664Z,9.30
2023-02-24T10:29:23.004Z,9.40
2023-02-24T10:31:59.851Z,9.60
2023-02-24T10:34:33.857Z,9.50
2023-02-24T10:37:26.149Z,9.40
2023-02-24T10:40:10.213Z,9.40
2023-02-24T10:42:49.939Z,9.60
2023-02-24T10:45:24.839Z,9.70
2023-02-24T10:47:58.406Z,9.70
2023-02-24T10:50:36.002Z,9.80
2023-02-24T10:53:10.141Z,10.10
2023-02-24T10:55:45.912Z,10.00
2023-02-24T10:58:28.009Z,10.00
2023-02-24T11:01:12.057Z,10.00
2023-02-24T11:04:12.033Z,10.30
2023-02-24T11:06:52.501Z,10.30
2023-02-24T11:09:34.909Z,10.40
2023-02-24T11:12:35.915Z,10.40
2023-02-24T11:15:34.494Z,10.40
2023-02-24T11:18:06.991Z,10.60
2023-02-24T11:20:49.512Z,10.90
2023-02-24T11:23:24.399Z,10.90
2023-02-24T11:26:01.265Z,10.70
2023-02-24T11:28:57.885Z,10.60
2023-02-24T11:32:22.274Z,10.70
2023-02-24T11:35:18.208Z,10.50
2023-02-24T11:38:38.610Z,10.40
2023-02-24T11:41:31.257Z,10.50
2023-02-24T11:44:19.981Z,10.40
2023-02-24T11:46:53.309Z,10.10
2023-02-24T11:49:49.261Z,9.90
2023-02-24T11:52:41.373Z,9.60
2023-02-24T11:55:38.905Z,9.60
2023-02-24T11:58:24.875Z,9.60
2023-02-24T12:01:02.045Z,9.80
2023-02-24T12:04:10.889Z,10.00
2023-02-24T12:06:58.338Z,10.10
2023-02-24T12:09:35.069Z,10.20
2023-02-24T12:12:24.727Z,10.30
2023-02-24T12:15:00.492Z,10.40
2023-02-24T12:17:44.391Z,10.50
2023-02-24T12:20:53.301Z,10.40
2023-02-24T12:23:44.416Z,10.20
2023-02-24T12:26:48.108Z,9.80
2023-02-24T12:29:52.572Z,9.60
2023-02-24T12:32:31.920Z,9.50
2023-02-24T12:35:24.750Z,9.50
2023-02-24T12:38:14.551Z,9.70
2023-02-24T12:41:09.256Z,9.90
2023-02-24T12:43:50.746Z,10.10
2023-02-24T12:46:44.016Z,10.10
2023-02-24T12:49:21.392Z,10.40
2023-02-24T12:52:29.423Z,10.50
2023-02-24T12:55:11.357Z,10.60
2023-02-24T12:58:21.281Z,10.80
2023-02-24T13:00:57.190Z,10.80
2023-02-24T13:03:55.709Z,11.20
2023-02-24T13:06:48.619Z,11.50
2023-02-24T13:09:32.459Z,11.70
2023-02-24T13:12:20.449Z,11.30
2023-02-24T13:14:49.367Z,11.20
2023-02-24T13:17:27.144Z,11.10
2023-02-24T13:19:56.098Z,11.40
2023-02-24T13:22:32.549Z,12.40
2023-02-24T13:25:07.753Z,13.30
2023-02-24T13:27:38.999Z,14.00
2023-02-24T13:30:12.275Z,14.20
2023-02-24T13:32:44.487Z,14.10
2023-02-24T13:35:18.142Z,13.80
2023-02-24T13:37:47.564Z,13.50
2023-02-24T13:40:23.102Z,13.00
2023-02-24T13:43:04.957Z,12.20
2023-02-24T13:45:37.494Z,11.60
2023-02-24T13:48:30.186Z,11.40
2023-02-24T13:51:12.420Z,11.30
2023-02-24T13:54:22.657Z,11.40
2023-02-24T13:57:35.022Z,11.30
2023-02-24T14:00:30.288Z,11.20
2023-02-24T14:02:57.871Z,11.10
2023-02-24T14:05:31.327Z,11.30
2023-02-24T14:07:59.232Z,11.40
2023-02-24T14:10:34.812Z,11.20
2023-02-24T14:13:16.589Z,11.00
2023-02-24T14:15:46.298Z,10.60
2023-02-24T14:18:21.076Z,10.40
2023-02-24T14:20:49.152Z,10.50
2023-02-24T14:23:24.525Z,10.50
2023-02-24T14:26:14.047Z,10.50
2023-02-24T14:28:42.153Z,10.50
2023-02-24T14:31:16.255Z,10.50
2023-02-24T14:33:45.611Z,10.40
2023-02-24T14:36:24.954Z,10.40
2023-02-24T14:39:12.654Z,10.30
2023-02-24T14:41:39.934Z,10.30
2023-02-24T14:44:28.460Z,10.20
2023-02-24T14:47:04.010Z,10.20
2023-02-24T14:49:35.927Z,10.10
2023-02-24T14:52:28.429Z,10.10
2023-02-24T14:55:29.245Z,10.10
2023-02-24T14:58:11.731Z,10.10
2023-02-24T15:00:45.974Z,10.10
2023-02-24T15:03:30.146Z,10.00
2023-02-24T15:06:04.983Z,10.10
2023-02-24T15:08:40.175Z,10.10
2023-02-24T15:11:22.663Z,10.10
2023-02-24T15:13:54.136Z,10.00
2023-02-24T15:16:42.750Z,9.90
2023-02-24T15:19:35.718Z,9.70
2023-02-24T15:22:23.131Z,9.50
2023-02-24T15:24:52.829Z,9.40
2023-02-24T15:27:27.513Z,9.50
2023-02-24T15:30:26.909Z,9.30
2023-02-24T15:33:20.978Z,9.30
2023-02-24T15:35:59.529Z,9.20
2023-02-24T15:38:34.665Z,9.20
2023-02-24T15:41:05.480Z,9.20
2023-02-24T15:43:37.994Z,9.20
2023-02-24T15:46:32.875Z,9.10
2023-02-24T15:49:04.604Z,9.00
2023-02-24T15:51:39.508Z,9.00
2023-02-24T15:54:43.439Z,9.00
2023-02-24T15:57:13.125Z,8.90
2023-02-24T15:59:40.591Z,8.80
2023-02-24T16:02:19.527Z,8.80
2023-02-24T16:04:48.220Z,8.80
2023-02-24T16:07:22.190Z,8.80
2023-02-24T16:09:52.850Z,8.70
2023-02-24T16:12:44.282Z,8.60
2023-02-24T16:15:20.779Z,8.50
2023-02-24T16:17:48.077Z,8.40
2023-02-24T16:20:20.331Z,8.40
2023-02-24T16:22:47.407Z,8.30
2023-02-24T16:25:17.412Z,8.30
2023-02-24T16:27:44.675Z,8.30
2023-02-24T16:30:22.608Z,8.20
2023-02-24T16:32:51.361Z,8.10
2023-02-24T16:35:18.657Z,8.00
2023-02-24T16:37:47.913Z,7.90
2023-02-24T16:40:33.926Z,7.80
2023-02-24T16:43:01.519Z,7.80
2023-02-24T16:45:30.310Z,7.70
2023-02-24T16:48:05.823Z,7.60
2023-02-24T16:50:39.990Z,7.60
2023-02-24T16:53:09.018Z,7.60
2023-02-24T16:55:36.108Z,7.60
2023-02-24T16:58:03.161Z,7.60
2023-02-24T17:00:30.276Z,7.60
2023-02-24T17:02:57.517Z,7.60
2023-02-24T17:05:27.602Z,7.60
2023-02-24T17:07:57.371Z,7.50
2023-02-24T17:10:25.545Z,7.60
2023-02-24T17:12:52.907Z,7.60
2023-02-24T17:15:23.760Z,7.60
2023-02-24T17:17:51.332Z,7.60
2023-02-24T17:20:20.751Z,7.60
2023-02-24T17:22:48.107Z,7.70
2023-02-24T17:25:19.767Z,7.70
2023-02-24T17:27:47.028Z,7.70
2023-02-24T17:30:18.386Z,7.80
2023-02-24T17:32:46.236Z,7.80
2023-02-24T17:35:13.968Z,7.70
2023-02-24T17:37:41.290Z,7.70
2023-02-24T17:40:09.444Z,7.70
2023-02-24T17:42:36.817Z,7.70
2023-02-24T17:45:06.941Z,7.60
2023-02-24T17:47:35.325Z,7.60
2023-02-24T17:50:04.221Z,7.60
2023-02-24T17:52:32.297Z,7.60
2023-02-24T17:54:59.827Z,7.60
2023-02-24T17:57:29.475Z,7.50
2023-02-24T17:59:59.207Z,7.50
2023-02-24T18:02:26.406Z,7.50
2023-02-24T18:04:54.123Z,7.50
2023-02-24T18:07:21.389Z,7.50
2023-02-24T18:09:48.475Z,7.50
2023-02-24T18:12:17.346Z,7.40
2023-02-24T18:14:45.402Z,7.40
2023-02-24T18:17:12.505Z,7.30
2023-02-24T18:19:39.585Z,7.20
2023-02-24T18:22:07.583Z,7.00
2023-02-24T18:24:34.688Z,6.80
2023-02-24T18:27:03.235Z,6.50
2023-02-24T18:29:32.115Z,6.20
2023-02-24T18:31:59.584Z,5.90
2023-02-24T18:34:28.189Z,5.50
2023-02-24T18:36:55.340Z,5.30
2023-02-24T18:39:22.716Z,5.10
2023-02-24T18:41:49.933Z,4.90
2023-02-24T18:44:17.326Z,4.80
2023-02-24T18:46:44.634Z,4.70
2023-02-24T18:49:11.883Z,4.60
2023-02-24T18:51:39.179Z,4.50
2023-02-24T18:54:07.690Z,4.50
2023-02-24T18:56:35.837Z,4.40
2023-02-24T18:59:04.990Z,4.40
2023-02-24T19:01:39.024Z,4.30
2023-02-24T19:04:08.698Z,4.30
2023-02-24T19:06:38.573Z,4.30
2023-02-24T19:09:11.588Z,4.20
2023-02-24T19:11:40.885Z,4.10
2023-02-24T19:14:12.030Z,4.10
2023-02-24T19:16:39.712Z,4.00
2023-02-24T19:19:07.027Z,4.00
2023-02-24T19:21:34.244Z,4.00
2023-02-24T19:24:03.850Z,4.00
2023-02-24T19:26:31.195Z,4.00
2023-02-24T19:29:00.050Z,4.00
2023-02-24T19:31:30.500Z,3.90
2023-02-24T19:34:01.070Z,3.90
2023-02-24T19:36:30.633Z,3.90
2023-02-24T19:38:58.060Z,3.90
2023-02-24T19:41:25.303Z,3.90
2023-02-24T19:43:52.794Z,3.90
2023-02-24T19:46:20.282Z,3.90
2023-02-24T19:48:48.804Z,3.90
2023-02-24T19:51:22.620Z,3.90
2023-02-24T19:53:57.972Z,3.90
2023-02-24T19:56:30.751Z,3.90
2023-02-24T19:59:00.503Z,3.90
2023-02-24T20:01:31.649Z,3.90
2023-02-24T20:04:01.975Z,3.90
2023-02-24T20:06:34.010Z,3.90
2023-02-24T20:09:02.238Z,3.90
2023-02-24T20:11:31.668Z,3.90
2023-02-24T20:13:58.881Z,3.90
2023-02-24T20:16:27.320Z,3.90
2023-02-24T20:18:55.590Z,3.90
2023-02-24T20:21:22.907Z,4.00
2023-02-24T20:23:50.988Z,3.90
2023-02-24T20:26:18.893Z,3.90
2023-02-24T20:28:47.506Z,4.00
2023-02-24T20:31:18.716Z,3.90
2023-02-24T20:33:47.703Z,4.00
2023-02-24T20:36:25.363Z,4.00
2023-02-24T20:38:53.843Z,4.10
2023-02-24T20:41:22.390Z,4.10
2023-02-24T20:43:50.004Z,4.10
2023-02-24T20:46:28.895Z,4.10
2023-02-24T20:49:07.636Z,4.10
2023-02-24T20:51:37.720Z,4.10
2023-02-24T20:54:08.618Z,4.20
2023-02-24T20:56:38.522Z,4.10
2023-02-24T20:59:12.064Z,4.20
2023-02-24T21:01:40.124Z,4.10
2023-02-24T21:04:08.838Z,4.10
2023-02-24T21:06:37.256Z,4.00
2023-02-24T21:09:05.151Z,4.00
2023-02-24T21:11:34.540Z,4.10
2023-02-24T21:14:01.731Z,4.00
2023-02-24T21:16:32.071Z,4.00
2023-02-24T21:18:59.178Z,4.00
2023-02-24T21:21:27.494Z,4.00
2023-02-24T21:23:55.936Z,4.00
2023-02-24T21:26:26.835Z,4.00
2023-02-24T21:28:57.875Z,4.00
2023-02-24T21:31:26.817Z,4.00
2023-02-24T21:33:55.122Z,4.00
2023-02-24T21:36:26.441Z,4.10
2023-02-24T21:38:54.878Z,4.10
2023-02-24T21:41:23.715Z,4.10
2023-02-24T21:43:55.466Z,4.10
2023-02-24T21:46:25.086Z,4.00
2023-02-24T21:48:57.852Z,4.00
2023-02-24T21:51:27.121Z,3.90
2023-02-24T21:53:57.299Z,3.90
2023-02-24T21:56:28.094Z,3.90
2023-02-24T21:59:00.167Z,3.90
2023-02-24T22:01:34.001Z,3.90
2023-02-24T22:04:06.673Z,3.90
2023-02-24T22:06:36.382Z,3.80
2023-02-24T22:09:06.065Z,3.80
2023-02-24T22:11:38.175Z,3.90
2023-02-24T22:14:12.719Z,3.90
2023-02-24T22:16:41.337Z,3.90
2023-02-24T22:19:09.036Z,3.90
2023-02-24T22:21:36.235Z,3.90
2023-02-24T22:24:04.519Z,3.90
2023-02-24T22:26:32.281Z,4.10
2023-02-24T22:29:00.941Z,4.10
2023-02-24T22:31:31.702Z,4.00
2023-02-24T22:33:59.613Z,4.00
2023-02-24T22:36:31.371Z,4.00
2023-02-24T22:39:00.581Z,4.00
2023-02-24T22:41:34.019Z,4.00
2023-02-24T22:44:05.216Z,4.00
2023-02-24T22:46:38.384Z,4.10
2023-02-24T22:49:06.627Z,4.00
2023-02-24T22:51:33.774Z,4.00
2023-02-24T22:54:00.916Z,4.10
2023-02-24T22:56:29.708Z,4.00
2023-02-24T22:58:58.021Z,4.00
2023-02-24T23:01:32.990Z,4.10
2023-02-24T23:04:06.592Z,4.00
2023-02-24T23:06:36.456Z,4.10
2023-02-24T23:09:06.490Z,4.10
2023-02-24T23:11:38.669Z,4.10
2023-02-24T23:14:10.056Z,4.00
2023-02-24T23:16:38.777Z,4.00
2023-02-24T23:19:16.097Z,4.10
2023-02-24T23:21:50.602Z,4.00
2023-02-24T23:24:19.936Z,4.10
2023-02-24T23:26:54.293Z,4.10
2023-02-24T23:29:23.780Z,4.20
2023-02-24T23:31:52.639Z,4.20
2023-02-24T23:34:19.888Z,4.10
2023-02-24T23:36:47.941Z,4.10
2023-02-24T23:39:20.499Z,4.00
2023-02-24T23:41:47.810Z,4.00
2023-02-24T23:44:15.112Z,3.90
2023-02-24T23:46:42.644Z,3.80
2023-02-24T23:49:09.856Z,3.80
2023-02-24T23:51:52.987Z,3.80
2023-02-24T23:54:20.560Z,3.70
2023-02-24T23:56:48.132Z,3.60
2023-02-24T23:59:15.960Z,3.60
